Westchester, Florida
Current Conditions -  °F | °C
As of 12:53 PM on Friday 21 Nov 2014 (Local Time) from KMIA Reporting Station
Light Rain Light Rain  
Wind Chill: 72°   Ceiling: 1200
Heat Index: 72°   Visibility: 6mi
Dew Point: 69°   Wind: 12mph
Humidity: 91%   Direction: 40°NE
Pressure: 30.14"   Gusts: NA
Location:  25.7365°N, 80.3606°W
Report Text: KMIA 211753Z 04010KT 6SM -RA BR FEW008 BKN012 OVC022 22/21 A3014 RMK AO2 SLP206 P0002 60013 T02220206 10222 20211 58017
Loading
Personal Weather Stations






























Interactive Weather Map New forecast layout! Learn more

10-Day Weather Forecast

Advertisements
Track Severe Weather on mobile